首页
METAR-TAF:

METAR-TAF

机场 :

開羅國際機場

开罗, 埃及

纬度: 30-08N, 经度: 031-24E, 海拔: 64米

当前天气观测

该预报发布于7分钟前的22:00 UTC
风速6节,风向东转东北
温度 25°C
湿度 61%
气压 1011 hPa
能见度10公里或以上
1500米以下无云,无积雨云

METAR: HECA 212200Z 06006KT CAVOK 25/17 Q1011 NOSIG

时间: 00:07 (22:07 UTC)

预报

该预报发布于5小时和7分钟前的17:00 UTC
预报有效从21日的 18点(UTC)到 22日的 24点(UTC)
风速8节,风向东转东南
能见度10公里或以上
1500米以下无云,无积雨云
成为
从 22日的 01点(UTC)到 22日的 03点(UTC)
风速10节,风向南转西南

TAF: HECA 211700Z 2118/2224 12008KT CAVOK BECMG 2201/2203 20010KT

超过4000个机场的气象观测和天气预报(METAR&TAF报告)。

可查询的气象台以黄色和红色小点在地图上表示。

将鼠标移到小点上方,可查看气象台名称。

然后点击查看天气观测和预报。

如需切换地图:点击带黑十字的绿色按钮放大地图;点击带横线的绿色按钮缩小地图;或者点击绿色箭头查看邻近地区的地图。


METAR-TAF: